• Join FlightAware (Why Join?)
  • Login
  • US Flag 
08:48PM EST


 

Airport Tracker/Info


-or-


 

Live Flight TrackerFlight Track Log ✈ USC105 ✈ 30-Apr-2013 ✈ KBKL - KYIP

Flight Track Log - Related Links

Times and Time Zones

All times are in EDT time to prevent confusion due to time zone crossing. See the USC105 flight status page for this flight to view local times or setup timezone preferences in your user account.

Time Position Orientation Groundspeed Altitude Reporting Facility
EDT Latitude Longitude Course Direction KTS MPH feet Rate Location/Type
11:09PM 41.5603 -81.7153 322° Northwest 146 168 2,000  Level Cleveland Center
11:10PM 41.5828 -81.7603 304° West 136 157 3,100 1,080 Climbing Cleveland Center
11:11PM 41.5950 -81.8047 290° West 123 142 4,200 900 Climbing Cleveland Center
11:12PM 41.6069 -81.8494 290° West 128 147 5,000 780 Climbing Cleveland Center
11:13PM 41.6272 -81.9000 298° West 148 170 5,800 780 Climbing Cleveland Center
11:14PM 41.6453 -81.9475 297° West 145 167 6,600 840 Climbing Cleveland Center
11:15PM 41.6636 -81.9978 296° West 146 168 7,600 660 Climbing Cleveland Center
11:16PM 41.6858 -82.0511 299° West 149 171 8,000 180 Climbing Cleveland Center
11:17PM 41.7081 -82.1017 301° West 168 193 8,000  Level Cleveland Center
11:18PM 41.7261 -82.1578 293° West 167 192 8,000  Level Cleveland Center
11:19PM 41.7481 -82.2197 295° West 176 203 8,000  Level Cleveland Center
11:20PM 41.7722 -82.2786 299° West 186 214 8,000 -120 Level Cleveland Center
11:20PM 41.7844 -82.3042 303° West 188 216 7,900 -60 Descending Cleveland Center
11:21PM 41.8125 -82.3828 296° West 187 215 7,900  Level Cleveland Center
11:22PM 41.8364 -82.4450 297° West 184 212 7,900  Level Cleveland Center
11:23PM 41.8368 -82.4458 297° West  Level FlightAware Approximate
11:24PM 41.8783 -82.5603 296° West 185 213 7,900  Level Cleveland Center
11:25PM 41.9022 -82.6197 298° West 185 213 7,900  Level Cleveland Center
11:26PM 41.9261 -82.6875 295° West 184 212 7,900 -180 Level Cleveland Center
11:28PM 41.9519 -82.7553 297° West 186 214 7,600 -480 Descending Cleveland Center
11:29PM 41.9778 -82.8233 297° West 206 237 6,900 -660 Descending Cleveland Center
11:30PM 42.0033 -82.8911 297° West 211 243 6,300 -780 Descending Cleveland Center
11:31PM 42.0372 -82.9708 300° West 213 245 5,300 -780 Descending Cleveland Center
11:31PM 42.0614 -83.0108 309° West 213 245 4,900 -240 Descending Cleveland Center
11:32PM 42.0978 -83.0681 311° West 196 226 4,900  Level Cleveland Center
11:33PM 42.1258 -83.1225 305° West 186 214 4,900  Level Cleveland Center
11:35PM 42.1656 -83.1997 305° West 187 215 4,900  Level Cleveland Center
11:36PM 42.1936 -83.2514 306° West 183 211 4,900 -180 Level Cleveland Center
11:37PM 42.2256 -83.3086 307° West 180 207 4,600 -720 Descending Cleveland Center
11:38PM 42.2575 -83.3719 304° West 193 222 3,500 -1,320 Descending Cleveland Center
11:39PM 42.2917 -83.4267 310° West 203 234 2,000 -960 Descending Cleveland Center
11:39PM 42.2800 -83.4739 252° West 128 147 1,800 -480 Descending Cleveland Center
11:40PM 42.2583 -83.5011 223° Southwest 106 122 1,200 -600 Descending Cleveland Center
11:42PM 42.2333 -83.5167 270° West  Level FlightAware Approximate
11:49PM 42.2393 -83.5310 270° West  Level Estimated
11:50PM 42.2393 -83.5310 270° West  Level Estimated